Cfl Racer — PJMV — position and weather

sailwx.info

Track history (hours):
 
Tides and Currents Weather Stations Pressure Air Temp Water Temp Dewpoint Dewpoint Depression Visibility Wind Speed Wind Dir Waves Ship Positions

Cfl Racer

Last reported at 2014-Oct-31 13:28 UTC. Time now 2014-Oct-31 15:13 UTC.
Position N 51°48' E 002°28'.

Date/timePositionNaut miles runAvg speedWind from/ knotsBaromVisibWave heightAir tempDewpointWater temp
2014-Oct-31 13:28N 51°48' E 002°28'1010.7
2014-Oct-31 12:33N 51°45' E 002°13'2311.4
2014-Oct-31 10:34N 51°35' E 001°40'1212.3
2014-Oct-31 09:34N 51°29' E 001°23'1312.9
2014-Oct-31 08:33N 51°29' E 001°02'1313.3
2014-Oct-31 07:34N 51°30' E 000°41'1212.2
2014-Oct-31 06:34N 51°27' E 000°22'9 8.7
2014-Oct-31 05:30N 51°31' E 000°09'0 0.0
2014-Oct-31 04:30N 51°31' E 000°09'0 0.0
2014-Oct-31 03:33N 51°31' E 000°09'0 0.0
2014-Oct-31 02:33N 51°31' E 000°09'0 0.0
2014-Oct-31 01:30N 51°31' E 000°09'0 0.0
2014-Oct-31 00:33N 51°31' E 000°09'0 0.0
2014-Oct-30 23:33N 51°31' E 000°09'0 0.0
2014-Oct-30 22:33N 51°31' E 000°09'0 0.0
2014-Oct-30 21:33N 51°31' E 000°09'0 0.0
2014-Oct-30 20:33N 51°31' E 000°09'0 0.0
2014-Oct-30 19:30N 51°31' E 000°09'0 0.0
2014-Oct-30 18:33N 51°31' E 000°09'0 0.0
2014-Oct-30 17:33N 51°31' E 000°09'0 0.0
2014-Oct-30 16:33N 51°31' E 000°09'0 0.0
2014-Oct-30 15:33N 51°31' E 000°09'0 0.0
2014-Oct-30 14:33N 51°31' E 000°09'0 0.0
2014-Oct-30 13:33N 51°31' E 000°09'0 0.0
2014-Oct-30 12:33N 51°31' E 000°09'0 0.0
2014-Oct-30 11:30N 51°31' E 000°09'0 0.0
2014-Oct-30 10:33N 51°31' E 000°09'0 0.0
2014-Oct-30 09:33N 51°31' E 000°09'0 0.0
2014-Oct-30 08:33N 51°31' E 000°09'0 0.0
2014-Oct-30 07:30N 51°31' E 000°09'0 0.0
2014-Oct-30 06:24N 51°31' E 000°09'0 0.0
2014-Oct-30 05:33N 51°31' E 000°09'2 1.6
2014-Oct-30 04:33N 51°30' E 000°11'7 7.4
2014-Oct-30 03:33N 51°27' E 000°22'8 8.4
2014-Oct-30 02:34N 51°30' E 000°34'1211.6
2014-Oct-30 01:33N 51°30' E 000°53'3 3.2
2014-Oct-30 00:28N 51°30' E 000°58'0 0.0
2014-Oct-29 23:31N 51°30' E 000°58'0 0.1
2014-Oct-29 22:31N 51°30' E 000°58'0 0.0
2014-Oct-29 21:31N 51°30' E 000°58'0 0.0
2014-Oct-29 20:31N 51°30' E 000°58'0 0.0
2014-Oct-29 19:31N 51°30' E 000°58'0 0.0
2014-Oct-29 18:31N 51°30' E 000°58'0 0.0
2014-Oct-29 17:28N 51°30' E 000°58'2 2.7
2014-Oct-29 16:34N 51°30' E 001°02'1110.5
2014-Oct-29 15:33N 51°29' E 001°19'1111.3
2014-Oct-29 14:34N 51°22' E 001°33'1111.1
2014-Oct-29 13:33N 51°11' E 001°37'9 8.6
2014-Oct-29 12:33N 51°03' E 001°34'9 9.1
2014-Oct-29 11:33N 50°56' E 001°25'33 6.7
2014-Oct-29 06:33N 50°38' E 000°40'8 8.3
2014-Oct-29 05:33N 50°40' E 000°27'12310.9
2014-Oct-28 18:18N 50°17' W 002°43'7 9.1
2014-Oct-28 17:33N 50°16' W 002°53'9 8.8
2014-Oct-28 16:33N 50°14' W 003°06'9 8.7
2014-Oct-28 15:33N 50°12' W 003°20'9 8.6
2014-Oct-28 14:33N 50°10' W 003°33'256 6.1
2014-Oct-26 20:32N 54°17' W 005°22'9 8.9
2014-Oct-26 19:33N 54°26' W 005°21'1010.4
2014-Oct-26 18:33N 54°36' W 005°26'8 8.5
2014-Oct-26 17:33N 54°42' W 005°36'11 9.5
2014-Oct-26 16:24N 54°37' W 005°54'1 0.2
2014-Oct-26 10:17N 54°37' W 005°55'0 0.0
2014-Oct-26 09:22N 54°37' W 005°55'0 0.0
2014-Oct-26 06:14N 54°37' W 005°55'1 2.2
2014-Oct-26 05:33N 54°38' W 005°53'10 9.8
2014-Oct-26 04:33N 54°43' W 005°39'10 9.9
2014-Oct-26 03:34N 54°36' W 005°26'1313.0
2014-Oct-26 02:33N 54°23' W 005°22'2412.2
2014-Oct-26 00:33N 54°05' W 005°51'1212.3
2014-Oct-25 23:33N 53°57' W 006°07'9 9.1
2014-Oct-25 22:33N 54°01' W 006°21'1 0.5
2014-Oct-25 20:22N 54°00' W 006°23'0 0.0
2014-Oct-25 19:25N 54°00' W 006°23'0 0.0
2014-Oct-25 18:15N 54°00' W 006°23'0 0.0
2014-Oct-25 17:33N 54°00' W 006°23'0 0.0
2014-Oct-25 14:04N 54°00' W 006°23'0 0.0
2014-Oct-25 13:33N 54°00' W 006°23'0 0.0
2014-Oct-25 12:28N 54°00' W 006°23'0 0.0
2014-Oct-25 11:33N 54°00' W 006°23'0 0.0
2014-Oct-25 10:33N 54°00' W 006°23'0 0.0
2014-Oct-25 09:21N 54°00' W 006°23'0 0.0
2014-Oct-25 07:30N 54°00' W 006°23'0 0.0
2014-Oct-25 04:34N 54°00' W 006°23'0 0.0
2014-Oct-25 03:21N 54°00' W 006°23'0 0.0
2014-Oct-25 02:03N 54°00' W 006°23'0 0.0
2014-Oct-25 01:04N 54°00' W 006°23'0 0.0
2014-Oct-25 00:21N 54°00' W 006°23'0 0.0
2014-Oct-24 23:33N 54°00' W 006°23'3 3.0
2014-Oct-24 22:33N 53°59' W 006°19'4 4.0
2014-Oct-24 21:34N 53°57' W 006°14'2 1.9
2014-Oct-24 20:34N 53°55' W 006°11'247 8.0
2014-Oct-23 13:30N 50°08' W 003°32'1111.6
2014-Oct-23 12:33N 50°10' W 003°15'1111.6
2014-Oct-23 11:33N 50°13' W 002°57'116 9.7
2014-Oct-22 23:34N 50°34' E 000°01'1110.5
2014-Oct-22 22:33N 50°36' E 000°18'9 9.3
2014-Oct-22 21:33N 50°38' E 000°32'9 9.0
2014-Oct-22 20:33N 50°43' E 000°44'9 9.5
2014-Oct-22 19:34N 50°48' E 000°56'1310.9
2014-Oct-22 18:20N 50°57' E 001°13'1012.6
2014-Oct-22 17:33N 51°03' E 001°25'1312.7
2014-Oct-22 16:34N 51°11' E 001°40'1111.1
2014-Oct-22 15:34N 51°19' E 001°52'1010.0
2014-Oct-22 14:34N 51°28' E 002°01'136 7.6
2014-Oct-21 20:33N 53°11' E 004°25'7 7.1
2014-Oct-21 19:33N 53°18' E 004°30'18 4.4
2014-Oct-21 15:30N 53°31' E 004°51'5 4.4
2014-Oct-21 14:27N 53°32' E 004°58'6 5.6
2014-Oct-21 13:28N 53°35' E 005°06'  
Track history (hours):
 
Tides and Currents Weather Stations Pressure Air Temp Water Temp Dewpoint Dewpoint Depression Visibility Wind Speed Wind Dir Waves Ship Positions

Cfl Racer

Last reported at 2014-Oct-31 13:28 UTC. Time now 2014-Oct-31 15:13 UTC.
Position N 51°48' E 002°28'.

Date/timePositionNaut miles runAvg speedWind from/ knotsBaromVisibWave heightAir tempDewpointWater temp
2014-Oct-31 13:28N 51°48' E 002°28'1010.7
2014-Oct-31 12:33N 51°45' E 002°13'2311.4
2014-Oct-31 10:34N 51°35' E 001°40'1212.3
2014-Oct-31 09:34N 51°29' E 001°23'1312.9
2014-Oct-31 08:33N 51°29' E 001°02'1313.3
2014-Oct-31 07:34N 51°30' E 000°41'1212.2
2014-Oct-31 06:34N 51°27' E 000°22'9 8.7
2014-Oct-31 05:30N 51°31' E 000°09'0 0.0
2014-Oct-31 04:30N 51°31' E 000°09'0 0.0
2014-Oct-31 03:33N 51°31' E 000°09'0 0.0
2014-Oct-31 02:33N 51°31' E 000°09'0 0.0
2014-Oct-31 01:30N 51°31' E 000°09'0 0.0
2014-Oct-31 00:33N 51°31' E 000°09'0 0.0
2014-Oct-30 23:33N 51°31' E 000°09'0 0.0
2014-Oct-30 22:33N 51°31' E 000°09'0 0.0
2014-Oct-30 21:33N 51°31' E 000°09'0 0.0
2014-Oct-30 20:33N 51°31' E 000°09'0 0.0
2014-Oct-30 19:30N 51°31' E 000°09'0 0.0
2014-Oct-30 18:33N 51°31' E 000°09'0 0.0
2014-Oct-30 17:33N 51°31' E 000°09'0 0.0
2014-Oct-30 16:33N 51°31' E 000°09'0 0.0
2014-Oct-30 15:33N 51°31' E 000°09'0 0.0
2014-Oct-30 14:33N 51°31' E 000°09'0 0.0
2014-Oct-30 13:33N 51°31' E 000°09'0 0.0
2014-Oct-30 12:33N 51°31' E 000°09'0 0.0
2014-Oct-30 11:30N 51°31' E 000°09'0 0.0
2014-Oct-30 10:33N 51°31' E 000°09'0 0.0
2014-Oct-30 09:33N 51°31' E 000°09'0 0.0
2014-Oct-30 08:33N 51°31' E 000°09'0 0.0
2014-Oct-30 07:30N 51°31' E 000°09'0 0.0
2014-Oct-30 06:24N 51°31' E 000°09'0 0.0
2014-Oct-30 05:33N 51°31' E 000°09'2 1.6
2014-Oct-30 04:33N 51°30' E 000°11'7 7.4
2014-Oct-30 03:33N 51°27' E 000°22'8 8.4
2014-Oct-30 02:34N 51°30' E 000°34'1211.6
2014-Oct-30 01:33N 51°30' E 000°53'3 3.2
2014-Oct-30 00:28N 51°30' E 000°58'0 0.0
2014-Oct-29 23:31N 51°30' E 000°58'0 0.1
2014-Oct-29 22:31N 51°30' E 000°58'0 0.0
2014-Oct-29 21:31N 51°30' E 000°58'0 0.0
2014-Oct-29 20:31N 51°30' E 000°58'0 0.0
2014-Oct-29 19:31N 51°30' E 000°58'0 0.0
2014-Oct-29 18:31N 51°30' E 000°58'0 0.0
2014-Oct-29 17:28N 51°30' E 000°58'2 2.7
2014-Oct-29 16:34N 51°30' E 001°02'1110.5
2014-Oct-29 15:33N 51°29' E 001°19'1111.3
2014-Oct-29 14:34N 51°22' E 001°33'1111.1
2014-Oct-29 13:33N 51°11' E 001°37'9 8.6
2014-Oct-29 12:33N 51°03' E 001°34'9 9.1
2014-Oct-29 11:33N 50°56' E 001°25'33 6.7
2014-Oct-29 06:33N 50°38' E 000°40'8 8.3
2014-Oct-29 05:33N 50°40' E 000°27'12310.9
2014-Oct-28 18:18N 50°17' W 002°43'7 9.1
2014-Oct-28 17:33N 50°16' W 002°53'9 8.8
2014-Oct-28 16:33N 50°14' W 003°06'9 8.7
2014-Oct-28 15:33N 50°12' W 003°20'9 8.6
2014-Oct-28 14:33N 50°10' W 003°33'256 6.1
2014-Oct-26 20:32N 54°17' W 005°22'9 8.9
2014-Oct-26 19:33N 54°26' W 005°21'1010.4
2014-Oct-26 18:33N 54°36' W 005°26'8 8.5
2014-Oct-26 17:33N 54°42' W 005°36'11 9.5
2014-Oct-26 16:24N 54°37' W 005°54'1 0.2
2014-Oct-26 10:17N 54°37' W 005°55'0 0.0
2014-Oct-26 09:22N 54°37' W 005°55'0 0.0
2014-Oct-26 06:14N 54°37' W 005°55'1 2.2
2014-Oct-26 05:33N 54°38' W 005°53'10 9.8
2014-Oct-26 04:33N 54°43' W 005°39'10 9.9
2014-Oct-26 03:34N 54°36' W 005°26'1313.0
2014-Oct-26 02:33N 54°23' W 005°22'2412.2
2014-Oct-26 00:33N 54°05' W 005°51'1212.3
2014-Oct-25 23:33N 53°57' W 006°07'9 9.1
2014-Oct-25 22:33N 54°01' W 006°21'1 0.5
2014-Oct-25 20:22N 54°00' W 006°23'0 0.0
2014-Oct-25 19:25N 54°00' W 006°23'0 0.0
2014-Oct-25 18:15N 54°00' W 006°23'0 0.0
2014-Oct-25 17:33N 54°00' W 006°23'0 0.0
2014-Oct-25 14:04N 54°00' W 006°23'0 0.0
2014-Oct-25 13:33N 54°00' W 006°23'0 0.0
2014-Oct-25 12:28N 54°00' W 006°23'0 0.0
2014-Oct-25 11:33N 54°00' W 006°23'0 0.0
2014-Oct-25 10:33N 54°00' W 006°23'0 0.0
2014-Oct-25 09:21N 54°00' W 006°23'0 0.0
2014-Oct-25 07:30N 54°00' W 006°23'0 0.0
2014-Oct-25 04:34N 54°00' W 006°23'0 0.0
2014-Oct-25 03:21N 54°00' W 006°23'0 0.0
2014-Oct-25 02:03N 54°00' W 006°23'0 0.0
2014-Oct-25 01:04N 54°00' W 006°23'0 0.0
2014-Oct-25 00:21N 54°00' W 006°23'0 0.0
2014-Oct-24 23:33N 54°00' W 006°23'3 3.0
2014-Oct-24 22:33N 53°59' W 006°19'4 4.0
2014-Oct-24 21:34N 53°57' W 006°14'2 1.9
2014-Oct-24 20:34N 53°55' W 006°11'247 8.0
2014-Oct-23 13:30N 50°08' W 003°32'1111.6
2014-Oct-23 12:33N 50°10' W 003°15'1111.6
2014-Oct-23 11:33N 50°13' W 002°57'116 9.7
2014-Oct-22 23:34N 50°34' E 000°01'1110.5
2014-Oct-22 22:33N 50°36' E 000°18'9 9.3
2014-Oct-22 21:33N 50°38' E 000°32'9 9.0
2014-Oct-22 20:33N 50°43' E 000°44'9 9.5
2014-Oct-22 19:34N 50°48' E 000°56'1310.9
2014-Oct-22 18:20N 50°57' E 001°13'1012.6
2014-Oct-22 17:33N 51°03' E 001°25'1312.7
2014-Oct-22 16:34N 51°11' E 001°40'1111.1
2014-Oct-22 15:34N 51°19' E 001°52'1010.0
2014-Oct-22 14:34N 51°28' E 002°01'136 7.6
2014-Oct-21 20:33N 53°11' E 004°25'7 7.1
2014-Oct-21 19:33N 53°18' E 004°30'18 4.4
2014-Oct-21 15:30N 53°31' E 004°51'5 4.4
2014-Oct-21 14:27N 53°32' E 004°58'6 5.6
2014-Oct-21 13:28N 53°35' E 005°06'  

Dump ship's entire track history